This is the latest recevied weather packets stored in our database for station/object KA1ROH. If no packets are shown the sender has not sent any weather packets the latest 10 day(s).
| Time | Temp. | Humidity | Pressure | Rain* | Wind** | Luminosity | Snow |
|---|---|---|---|---|---|---|---|
| 1777730316 | 6.11° C | 85% | 1012.5 hPa | 0 mm | - | - | - |
| 1777727913 | 6.11° C | 88% | 1012.5 hPa | 0 mm | - | - | - |
| 1777726649 | 6.11° C | 89% | 1012.5 hPa | 0.25 mm | - | - | - |
| 1777722258 | 6.11° C | 91% | 1012.5 hPa | 0.25 mm | - | - | - |
| 1777718623 | 6.11° C | 90% | 1012.2 hPa | 0.25 mm | - | - | - |
| 1777718022 | 6.11° C | 89% | 1011.9 hPa | 0.25 mm | - | - | - |
| 1777716220 | 6.11° C | 88% | 1011.9 hPa | 0.25 mm | - | - | - |
| 1777715619 | 6.67° C | 87% | 1011.9 hPa | 0 mm | - | - | - |
| 1777715019 | 6.67° C | 87% | 1011.9 hPa | 0 mm | - | - | - |
| 1777713217 | 6.67° C | 85% | 1011.9 hPa | 0 mm | - | - | - |
| 1777710814 | 6.11° C | 82% | 1011.9 hPa | 0 mm | - | - | - |
| 1777708349 | 6.67° C | 77% | 1011.9 hPa | 0 mm | - | - | - |
| 1777702068 | 6.67° C | 71% | 1011.5 hPa | 0 mm | - | - | - |
| 1777699034 | 7.22° C | 71% | 1011.5 hPa | 0 mm | - | - | - |
| 1777697770 | 7.22° C | 71% | 1011.5 hPa | 0 mm | - | - | - |
| 1777696568 | 7.22° C | 69% | 1011.2 hPa | 0 mm | - | - | - |
| 1777695336 | 7.78° C | 70% | 1011.2 hPa | 0 mm | - | - | - |
| 1777694135 | 7.78° C | 68% | 1011.2 hPa | 0 mm | - | - | - |
| 1777691732 | 8.33° C | 62% | 1011.2 hPa | 0 mm | - | - | - |
| 1777683292 | 10° C | 52% | 1011.2 hPa | 0 mm | - | - | - |
| 1777681459 | 10.56° C | 50% | 1010.8 hPa | 0 mm | - | - | - |
| 1777677855 | 11.67° C | 45% | 1010.5 hPa | 0 mm | - | - | - |
| 1777677254 | 11.67° C | 51% | 1010.5 hPa | 0 mm | - | - | - |
| 1777672313 | 12.22° C | 45% | 1010.2 hPa | 0 mm | - | - | - |
| 1777670511 | 12.78° C | 45% | 1010.2 hPa | 0 mm | - | - | - |
* Rain latest hour (hover to see other rain measurements)
** Current wind speed in m/s (hover to see current wind gust speed)